Time;durP1;ratioP1;P1;durP2;ratioP2;P2;SDS_P1;SDS_P2;PMS_P1;PMS_P2;Temp;Humidity;BMP_temperature;BMP_pressure;BME280_temperature;BME280_humidity;BME280_pressure;Samples;Min_cycle;Max_cycle;Signal;HPM_P1;HPM_P2
2022/03/25 00:02:13;;;;;;;2.72;0.82;;;;;;;;;;4936803;29;20058;-73
2022/03/25 00:04:43;;;;;;;6.47;1.00;;;;;;;;;;4948540;28;20066;-73
2022/03/25 00:07:15;;;;;;;4.72;0.90;;;;;;;;;;4962235;28;20064;-73
2022/03/25 00:09:47;;;;;;;5.07;0.80;;;;;;;;;;4986890;28;20147;-73
2022/03/25 00:12:17;;;;;;;1.67;0.75;;;;;;;;;;4990862;28;20050;-73
2022/03/25 00:14:48;;;;;;;2.35;0.98;;;;;;;;;;5001734;28;20062;-75
2022/03/25 00:17:18;;;;;;;2.72;0.75;;;;;;;;;;5010617;28;20452;-74
2022/03/25 00:19:50;;;;;;;2.22;0.60;;;;;;;;;;5010841;28;20058;-74
2022/03/25 00:22:20;;;;;;;2.15;0.90;;;;;;;;;;5010251;28;20054;-74
2022/03/25 00:24:51;;;;;;;3.17;0.88;;;;;;;;;;4970578;28;20050;-74
2022/03/25 00:27:22;;;;;;;3.20;1.23;;;;;;;;;;4971430;28;20047;-73
2022/03/25 00:29:53;;;;;;;2.33;0.57;;;;;;;;;;4970691;28;20655;-74
2022/03/25 00:32:24;;;;;;;2.97;0.70;;;;;;;;;;4970542;28;20054;-73
2022/03/25 00:34:54;;;;;;;3.83;1.13;;;;;;;;;;4932011;29;20412;-73
2022/03/25 00:37:25;;;;;;;7.13;1.73;;;;;;;;;;4932670;29;20527;-73
2022/03/25 00:39:57;;;;;;;2.47;0.63;;;;;;;;;;4913321;29;20101;-73
2022/03/25 00:42:28;;;;;;;3.50;1.30;;;;;;;;;;4894319;29;20056;-74
2022/03/25 00:45:02;;;;;;;3.35;0.88;;;;;;;;;;4884209;29;20060;-73
2022/03/25 00:47:33;;;;;;;1.80;0.75;;;;;;;;;;4867300;29;20060;-73
2022/03/25 00:50:04;;;;;;;5.53;0.82;;;;;;;;;;4856920;29;20766;-74
2022/03/25 00:52:35;;;;;;;3.30;0.80;;;;;;;;;;4857417;29;20065;-73
2022/03/25 00:55:06;;;;;;;5.97;0.80;;;;;;;;;;4857341;29;20076;-74
2022/03/25 00:57:37;;;;;;;7.70;1.10;;;;;;;;;;4811792;29;20065;-74
2022/03/25 01:00:09;;;;;;;5.38;0.95;;;;;;;;;;4838416;29;20523;-74
2022/03/25 01:02:39;;;;;;;3.47;0.95;;;;;;;;;;4848379;29;20490;-73
2022/03/25 01:05:10;;;;;;;3.17;0.73;;;;;;;;;;4857311;29;20060;-73
2022/03/25 01:07:41;;;;;;;6.95;0.90;;;;;;;;;;4867735;29;20081;-74
2022/03/25 01:10:13;;;;;;;2.95;0.82;;;;;;;;;;4875591;29;20072;-73
2022/03/25 01:12:43;;;;;;;4.05;0.95;;;;;;;;;;4883621;29;20053;-73
2022/03/25 01:15:15;;;;;;;3.00;1.30;;;;;;;;;;4894165;29;20470;-73
2022/03/25 01:17:46;;;;;;;3.28;0.90;;;;;;;;;;4904960;29;20060;-73
2022/03/25 01:20:17;;;;;;;2.35;1.02;;;;;;;;;;4904389;29;20056;-72
2022/03/25 01:22:49;;;;;;;2.95;0.80;;;;;;;;;;4887127;29;20053;-73
2022/03/25 01:25:19;;;;;;;6.15;1.42;;;;;;;;;;4893967;29;20127;-72
2022/03/25 01:27:51;;;;;;;3.95;1.10;;;;;;;;;;4894478;29;20410;-73
2022/03/25 01:30:22;;;;;;;4.25;1.02;;;;;;;;;;4912786;29;20416;-73
2022/03/25 01:32:55;;;;;;;4.57;1.33;;;;;;;;;;4913113;29;20064;-73
2022/03/25 01:35:25;;;;;;;5.78;1.05;;;;;;;;;;4928403;29;20064;-74
2022/03/25 01:37:55;;;;;;;5.45;1.30;;;;;;;;;;4923908;29;20056;-73
2022/03/25 01:40:28;;;;;;;3.97;0.93;;;;;;;;;;4929444;29;20634;-74
2022/03/25 01:42:58;;;;;;;3.90;0.98;;;;;;;;;;4913234;29;20060;-74
2022/03/25 01:45:35;;;;;;;5.25;1.02;;;;;;;;;;4914222;29;20052;-74
2022/03/25 01:48:14;;;;;;;10.45;1.50;;;;;;;;;;4916849;29;20064;-75
2022/03/25 01:50:47;;;;;;;5.22;1.58;;;;;;;;;;4929006;29;20064;-74
2022/03/25 01:53:23;;;;;;;4.63;1.60;;;;;;;;;;4935794;29;20060;-74
2022/03/25 01:55:57;;;;;;;4.70;1.52;;;;;;;;;;4935351;29;20060;-72
2022/03/25 01:58:30;;;;;;;7.10;1.52;;;;;;;;;;4963185;28;20046;-74
2022/03/25 02:01:04;;;;;;;12.77;1.40;;;;;;;;;;4973999;28;20062;-75
2022/03/25 02:03:35;;;;;;;5.68;1.33;;;;;;;;;;4989386;28;20426;-73
2022/03/25 02:06:06;;;;;;;5.78;1.25;;;;;;;;;;4969949;28;20047;-74
2022/03/25 02:08:37;;;;;;;4.97;1.23;;;;;;;;;;4938018;29;20062;-74
2022/03/25 02:11:09;;;;;;;4.57;1.30;;;;;;;;;;4953948;28;20043;-74
2022/03/25 02:13:39;;;;;;;5.53;1.42;;;;;;;;;;4943043;28;20055;-74
2022/03/25 02:16:10;;;;;;;9.25;1.30;;;;;;;;;;4973272;28;20054;-74
2022/03/25 02:18:41;;;;;;;6.60;1.20;;;;;;;;;;4973285;28;20051;-75
2022/03/25 02:21:12;;;;;;;4.03;1.42;;;;;;;;;;4953872;28;20047;-75
2022/03/25 02:23:43;;;;;;;5.35;0.98;;;;;;;;;;4953650;28;20059;-74
2022/03/25 02:26:14;;;;;;;6.97;1.75;;;;;;;;;;4915592;29;20048;-75
2022/03/25 02:28:46;;;;;;;5.55;1.00;;;;;;;;;;4884579;29;20055;-75
2022/03/25 02:31:17;;;;;;;9.48;1.77;;;;;;;;;;4915606;29;20060;-74
2022/03/25 02:33:48;;;;;;;3.90;1.40;;;;;;;;;;4903796;29;20067;-74
2022/03/25 02:36:18;;;;;;;3.75;0.88;;;;;;;;;;4889563;29;20054;-75
2022/03/25 02:38:49;;;;;;;5.20;1.10;;;;;;;;;;4859314;29;20062;-74
2022/03/25 02:41:20;;;;;;;5.35;1.00;;;;;;;;;;4880802;29;20053;-74
2022/03/25 02:43:52;;;;;;;4.60;1.15;;;;;;;;;;4925195;29;20048;-75
2022/03/25 02:46:22;;;;;;;4.25;1.17;;;;;;;;;;4905145;29;20064;-75
2022/03/25 02:48:53;;;;;;;2.90;1.05;;;;;;;;;;4873841;29;20057;-75
2022/03/25 02:51:24;;;;;;;4.45;1.20;;;;;;;;;;4874035;29;20382;-74
2022/03/25 02:53:55;;;;;;;4.93;1.15;;;;;;;;;;4934137;29;20527;-74
2022/03/25 02:56:26;;;;;;;3.20;1.25;;;;;;;;;;4933985;29;20056;-75
2022/03/25 02:58:58;;;;;;;7.03;1.25;;;;;;;;;;4944313;28;20055;-74
2022/03/25 03:01:29;;;;;;;5.90;1.00;;;;;;;;;;4918543;29;20048;-74
2022/03/25 03:03:59;;;;;;;6.90;1.48;;;;;;;;;;4923898;29;20558;-74
2022/03/25 03:06:30;;;;;;;4.03;1.52;;;;;;;;;;4899724;29;20063;-73
2022/03/25 03:09:01;;;;;;;3.75;1.33;;;;;;;;;;4883971;29;20497;-74
2022/03/25 03:11:32;;;;;;;6.60;1.23;;;;;;;;;;4925445;29;20051;-74
2022/03/25 03:14:03;;;;;;;6.95;1.33;;;;;;;;;;4934445;29;20055;-73
2022/03/25 03:16:34;;;;;;;6.40;1.38;;;;;;;;;;4934070;29;20044;-73
2022/03/25 03:19:10;;;;;;;7.57;1.17;;;;;;;;;;4944802;29;20055;-73
2022/03/25 03:21:41;;;;;;;3.95;1.60;;;;;;;;;;4964292;28;20054;-73
2022/03/25 03:24:12;;;;;;;5.15;1.30;;;;;;;;;;4983506;28;20054;-74
2022/03/25 03:26:42;;;;;;;3.25;1.10;;;;;;;;;;4991890;28;20158;-73
2022/03/25 03:29:13;;;;;;;5.70;1.30;;;;;;;;;;5011339;28;20062;-73
2022/03/25 03:31:44;;;;;;;7.13;1.42;;;;;;;;;;5011314;28;20058;-73
2022/03/25 03:34:14;;;;;;;3.67;1.52;;;;;;;;;;5011425;28;20413;-73
2022/03/25 03:36:45;;;;;;;4.72;1.70;;;;;;;;;;4995551;28;20472;-74
2022/03/25 03:39:16;;;;;;;4.22;1.38;;;;;;;;;;5044699;28;20068;-74
2022/03/25 03:41:47;;;;;;;5.07;1.42;;;;;;;;;;5050381;28;20056;-74
2022/03/25 03:44:18;;;;;;;4.85;1.17;;;;;;;;;;5050847;28;20499;-73
2022/03/25 03:46:48;;;;;;;5.07;1.42;;;;;;;;;;5034565;28;20060;-73
2022/03/25 03:49:18;;;;;;;2.88;1.48;;;;;;;;;;5050906;28;20405;-73
2022/03/25 03:51:49;;;;;;;4.82;1.17;;;;;;;;;;5017610;28;20049;-73
2022/03/25 03:54:20;;;;;;;3.03;1.20;;;;;;;;;;5017832;28;20057;-73
2022/03/25 03:56:51;;;;;;;4.38;1.20;;;;;;;;;;5034335;28;20048;-73
2022/03/25 03:59:21;;;;;;;3.85;1.88;;;;;;;;;;5010360;28;20433;-73
2022/03/25 04:01:52;;;;;;;3.50;1.00;;;;;;;;;;5010179;28;20077;-72
2022/03/25 04:04:23;;;;;;;4.30;1.00;;;;;;;;;;4990913;28;20081;-73
2022/03/25 04:06:53;;;;;;;4.70;1.20;;;;;;;;;;4980483;28;20055;-73
2022/03/25 04:09:23;;;;;;;2.03;0.95;;;;;;;;;;4954554;28;20533;-74
2022/03/25 04:11:55;;;;;;;8.30;1.33;;;;;;;;;;4955226;28;20542;-73
2022/03/25 04:14:25;;;;;;;10.25;1.55;;;;;;;;;;4971780;28;20046;-73
2022/03/25 04:16:56;;;;;;;3.67;1.58;;;;;;;;;;4939370;28;20436;-74
2022/03/25 04:19:26;;;;;;;6.93;1.30;;;;;;;;;;4971282;28;20063;-74
2022/03/25 04:21:56;;;;;;;3.78;1.45;;;;;;;;;;4971278;28;20065;-74
2022/03/25 04:24:27;;;;;;;4.88;1.55;;;;;;;;;;4971357;28;20050;-74
2022/03/25 04:26:58;;;;;;;8.40;1.20;;;;;;;;;;4971413;28;20050;-73
2022/03/25 04:29:28;;;;;;;6.78;1.83;;;;;;;;;;4951839;29;20058;-73
2022/03/25 04:31:59;;;;;;;7.57;2.03;;;;;;;;;;4951457;28;20051;-74
2022/03/25 04:34:29;;;;;;;6.05;1.88;;;;;;;;;;4951792;28;20467;-73
2022/03/25 04:37:00;;;;;;;10.60;1.40;;;;;;;;;;4961029;28;20059;-74
2022/03/25 04:39:30;;;;;;;7.47;1.30;;;;;;;;;;4971695;28;20051;-74
2022/03/25 04:42:01;;;;;;;4.13;1.45;;;;;;;;;;4971007;28;20057;-75
2022/03/25 04:44:31;;;;;;;8.63;1.52;;;;;;;;;;4960969;28;20047;-74
2022/03/25 04:47:03;;;;;;;3.55;1.40;;;;;;;;;;4970495;28;20062;-75
2022/03/25 04:49:33;;;;;;;5.88;1.15;;;;;;;;;;4970853;28;20066;-75
2022/03/25 04:52:04;;;;;;;6.68;1.00;;;;;;;;;;4919273;29;20043;-74
2022/03/25 04:54:36;;;;;;;6.05;1.10;;;;;;;;;;4919845;29;20062;-74
2022/03/25 04:57:07;;;;;;;7.95;1.13;;;;;;;;;;4951573;29;20059;-75
2022/03/25 04:59:37;;;;;;;6.53;1.05;;;;;;;;;;4951636;28;20043;-74
2022/03/25 05:02:09;;;;;;;6.60;1.25;;;;;;;;;;4951054;29;20063;-73
2022/03/25 05:04:40;;;;;;;6.45;1.15;;;;;;;;;;4951669;29;20055;-74
2022/03/25 05:07:17;;;;;;;6.80;1.27;;;;;;;;;;4951729;29;20567;-74
2022/03/25 05:09:48;;;;;;;9.60;1.30;;;;;;;;;;4930936;28;20549;-74
2022/03/25 05:12:19;;;;;;;7.35;1.20;;;;;;;;;;5009442;28;20057;-73
2022/03/25 05:14:49;;;;;;;6.78;1.88;;;;;;;;;;5009736;28;20053;-73
2022/03/25 05:17:20;;;;;;;4.13;1.10;;;;;;;;;;5009672;28;20065;-73
2022/03/25 05:19:51;;;;;;;6.97;1.25;;;;;;;;;;4995207;28;20061;-73
2022/03/25 05:22:21;;;;;;;5.78;1.30;;;;;;;;;;5037485;28;20057;-72
2022/03/25 05:24:52;;;;;;;4.90;1.20;;;;;;;;;;5020483;28;20053;-73
2022/03/25 05:27:23;;;;;;;5.20;1.10;;;;;;;;;;5004897;28;20053;-73
2022/03/25 05:29:53;;;;;;;2.25;0.80;;;;;;;;;;5025078;28;20065;-72
2022/03/25 05:32:24;;;;;;;5.65;0.95;;;;;;;;;;5012890;28;20050;-74
2022/03/25 05:34:54;;;;;;;5.65;1.60;;;;;;;;;;5013610;28;20386;-74
2022/03/25 05:37:25;;;;;;;5.30;1.13;;;;;;;;;;5012964;28;20049;-73
2022/03/25 05:39:55;;;;;;;4.78;1.42;;;;;;;;;;5013586;28;20054;-73
2022/03/25 05:42:26;;;;;;;3.60;1.33;;;;;;;;;;4993588;28;20054;-73
2022/03/25 05:44:57;;;;;;;4.50;1.05;;;;;;;;;;4993505;28;20494;-74
2022/03/25 05:47:27;;;;;;;3.80;1.50;;;;;;;;;;4993553;28;20065;-74
2022/03/25 05:49:58;;;;;;;3.08;0.95;;;;;;;;;;4953881;28;20114;-75
2022/03/25 05:52:28;;;;;;;7.10;1.20;;;;;;;;;;4935553;29;20099;-75
2022/03/25 05:54:59;;;;;;;5.97;1.05;;;;;;;;;;4916343;29;20524;-75
2022/03/25 05:57:30;;;;;;;4.70;1.20;;;;;;;;;;4916664;29;20052;-75
2022/03/25 06:00:02;;;;;;;4.82;1.25;;;;;;;;;;4897383;29;20068;-72
2022/03/25 06:02:42;;;;;;;4.55;1.23;;;;;;;;;;4897378;29;20060;-71
2022/03/25 06:05:13;;;;;;;4.68;1.40;;;;;;;;;;4908580;29;20064;-71
2022/03/25 06:07:45;;;;;;;9.18;1.27;;;;;;;;;;4869462;29;20083;-68
2022/03/25 06:10:16;;;;;;;4.50;1.25;;;;;;;;;;4955231;28;20066;-67
2022/03/25 06:12:46;;;;;;;4.72;1.42;;;;;;;;;;4970219;28;20385;-66
2022/03/25 06:15:16;;;;;;;6.32;1.42;;;;;;;;;;4932147;29;20060;-65
2022/03/25 06:17:50;;;;;;;5.60;1.30;;;;;;;;;;4916317;29;20052;-65
2022/03/25 06:20:27;;;;;;;6.00;1.20;;;;;;;;;;4903893;29;20063;-65
2022/03/25 06:22:58;;;;;;;2.60;1.30;;;;;;;;;;4919487;29;20063;-65
2022/03/25 06:25:28;;;;;;;3.53;1.10;;;;;;;;;;4973309;28;20517;-65
2022/03/25 06:28:01;;;;;;;3.97;1.02;;;;;;;;;;5012133;28;20057;-67
2022/03/25 06:30:37;;;;;;;3.63;1.25;;;;;;;;;;5031754;28;20061;-69
2022/03/25 06:33:10;;;;;;;2.67;1.02;;;;;;;;;;4978610;28;20058;-69
2022/03/25 06:35:41;;;;;;;3.70;1.30;;;;;;;;;;4973002;28;20090;-69
2022/03/25 06:38:11;;;;;;;2.63;1.23;;;;;;;;;;4987089;28;20062;-70
2022/03/25 06:40:43;;;;;;;4.75;1.45;;;;;;;;;;4993104;28;20063;-72
2022/03/25 06:43:14;;;;;;;6.57;1.02;;;;;;;;;;4992765;28;20058;-69
2022/03/25 06:45:44;;;;;;;3.28;1.23;;;;;;;;;;4972911;28;20059;-71
2022/03/25 06:48:15;;;;;;;7.20;1.33;;;;;;;;;;4973020;28;20059;-70
2022/03/25 06:50:47;;;;;;;3.75;1.35;;;;;;;;;;4973571;28;20062;-70
2022/03/25 06:53:18;;;;;;;4.18;1.35;;;;;;;;;;4988527;28;20051;-70
2022/03/25 06:55:49;;;;;;;1.77;0.95;;;;;;;;;;5011668;28;20057;-70
2022/03/25 06:58:20;;;;;;;1.90;0.65;;;;;;;;;;5011835;28;20058;-70
2022/03/25 07:00:51;;;;;;;3.33;1.13;;;;;;;;;;4992253;28;20050;-68
2022/03/25 07:03:22;;;;;;;5.03;1.13;;;;;;;;;;4949518;28;20048;-67
2022/03/25 07:05:53;;;;;;;3.63;1.02;;;;;;;;;;4949914;28;20171;-68
2022/03/25 07:08:24;;;;;;;8.20;1.20;;;;;;;;;;4934250;29;20055;-69
2022/03/25 07:10:56;;;;;;;2.50;1.10;;;;;;;;;;4944861;28;20058;-71
2022/03/25 07:13:27;;;;;;;4.40;1.33;;;;;;;;;;4965175;28;20054;-71
2022/03/25 07:15:58;;;;;;;4.18;1.88;;;;;;;;;;4972560;28;20063;-70
2022/03/25 07:18:28;;;;;;;7.70;2.10;;;;;;;;;;4972965;28;20062;-72
2022/03/25 07:21:01;;;;;;;4.40;2.08;;;;;;;;;;4971844;28;20061;-71
2022/03/25 07:23:32;;;;;;;3.80;2.08;;;;;;;;;;4982960;28;20081;-69
2022/03/25 07:26:04;;;;;;;5.53;2.40;;;;;;;;;;5031142;28;20056;-71
2022/03/25 07:28:35;;;;;;;4.32;2.47;;;;;;;;;;5031249;28;20386;-71
2022/03/25 07:31:06;;;;;;;3.42;2.13;;;;;;;;;;4982349;28;20055;-72
2022/03/25 07:33:37;;;;;;;4.78;1.77;;;;;;;;;;4972224;28;20074;-71
2022/03/25 07:36:08;;;;;;;3.80;1.73;;;;;;;;;;4972597;28;20470;-71
2022/03/25 07:38:39;;;;;;;3.38;1.80;;;;;;;;;;4972179;28;20059;-71
2022/03/25 07:41:10;;;;;;;4.68;1.73;;;;;;;;;;5005133;28;20054;-69
2022/03/25 07:43:40;;;;;;;4.03;2.00;;;;;;;;;;5029939;28;20077;-68
2022/03/25 07:46:11;;;;;;;3.53;1.58;;;;;;;;;;4997898;28;20056;-70
2022/03/25 07:48:42;;;;;;;3.90;1.40;;;;;;;;;;5030820;28;20060;-70
2022/03/25 07:51:12;;;;;;;4.72;1.40;;;;;;;;;;5030842;28;20061;-71
2022/03/25 07:53:43;;;;;;;3.75;1.40;;;;;;;;;;4991091;28;20152;-71
2022/03/25 07:56:14;;;;;;;5.72;1.13;;;;;;;;;;4991499;28;20061;-69
2022/03/25 07:58:44;;;;;;;4.28;1.70;;;;;;;;;;5012231;28;20052;-69
2022/03/25 08:01:15;;;;;;;3.42;1.30;;;;;;;;;;4974840;28;20043;-69
2022/03/25 08:03:46;;;;;;;3.03;1.50;;;;;;;;;;4980651;28;20499;-69
2022/03/25 08:06:16;;;;;;;3.78;1.23;;;;;;;;;;4972007;28;20050;-69
2022/03/25 08:08:47;;;;;;;3.92;1.40;;;;;;;;;;4939653;28;20577;-68
2022/03/25 08:11:20;;;;;;;2.20;1.00;;;;;;;;;;4971917;28;20055;-68
2022/03/25 08:13:50;;;;;;;3.72;1.20;;;;;;;;;;5010264;28;20050;-68
2022/03/25 08:16:20;;;;;;;3.33;1.15;;;;;;;;;;5010789;28;20058;-67
2022/03/25 08:18:52;;;;;;;3.55;1.10;;;;;;;;;;4977946;28;20054;-68
2022/03/25 08:21:23;;;;;;;1.52;0.90;;;;;;;;;;4974464;28;20054;-68
2022/03/25 08:29:31;;;;;;;3.78;1.13;;;;;;;;;;4971000;28;20051;-68
2022/03/25 08:32:02;;;;;;;3.15;1.00;;;;;;;;;;4970526;28;20080;-68
2022/03/25 08:34:33;;;;;;;2.08;0.70;;;;;;;;;;4927018;28;20046;-67
2022/03/25 08:37:04;;;;;;;3.22;1.02;;;;;;;;;;4939925;29;20534;-67
2022/03/25 08:39:35;;;;;;;3.47;1.40;;;;;;;;;;4966948;28;20430;-67
2022/03/25 08:42:08;;;;;;;1.05;0.50;;;;;;;;;;4951681;28;20047;-67
2022/03/25 08:44:39;;;;;;;2.55;0.80;;;;;;;;;;4951626;29;20581;-67
2022/03/25 08:47:10;;;;;;;2.20;0.70;;;;;;;;;;4951696;29;20054;-68
2022/03/25 08:49:41;;;;;;;4.03;1.10;;;;;;;;;;4951832;29;20075;-67
2022/03/25 08:52:12;;;;;;;5.00;1.08;;;;;;;;;;4921184;29;20063;-67
2022/03/25 08:54:42;;;;;;;5.13;2.00;;;;;;;;;;4932002;29;20635;-68
2022/03/25 08:57:13;;;;;;;5.05;2.08;;;;;;;;;;4932743;29;20063;-68
2022/03/25 08:59:43;;;;;;;6.28;2.72;;;;;;;;;;4932800;29;20082;-68
2022/03/25 09:02:14;;;;;;;7.35;3.47;;;;;;;;;;4898135;29;20234;-67
2022/03/25 09:04:47;;;;;;;8.15;3.25;;;;;;;;;;4894408;29;20052;-67
2022/03/25 09:07:18;;;;;;;7.45;3.42;;;;;;;;;;4916982;29;20064;-67
2022/03/25 09:09:48;;;;;;;8.20;3.33;;;;;;;;;;4932376;29;20060;-67
2022/03/25 09:12:19;;;;;;;7.50;3.10;;;;;;;;;;4932210;29;20055;-67
2022/03/25 09:14:50;;;;;;;5.53;2.58;;;;;;;;;;4932337;29;20083;-67
2022/03/25 09:17:21;;;;;;;7.43;3.08;;;;;;;;;;4932474;29;20044;-67
2022/03/25 09:19:54;;;;;;;9.23;3.25;;;;;;;;;;4942931;28;20507;-67
2022/03/25 09:22:24;;;;;;;7.60;3.00;;;;;;;;;;4973046;28;20521;-67
2022/03/25 09:24:55;;;;;;;8.95;4.32;;;;;;;;;;4979579;28;20413;-67
2022/03/25 09:27:26;;;;;;;8.80;3.33;;;;;;;;;;5029659;28;20061;-68
2022/03/25 09:29:56;;;;;;;8.15;3.50;;;;;;;;;;5029204;28;20049;-67
2022/03/25 09:32:27;;;;;;;10.27;3.90;;;;;;;;;;5009558;28;20390;-67
2022/03/25 09:35:10;;;;;;;7.82;4.00;;;;;;;;;;5029221;28;20064;-67
2022/03/25 09:37:48;;;;;;;8.43;3.65;;;;;;;;;;5009765;28;20061;-66
2022/03/25 09:40:22;;;;;;;7.25;4.03;;;;;;;;;;5006358;28;20800;-66
2022/03/25 09:42:55;;;;;;;8.68;4.78;;;;;;;;;;5029368;28;20790;-67
2022/03/25 09:45:30;;;;;;;8.70;4.88;;;;;;;;;;4980406;28;20058;-67
2022/03/25 09:48:01;;;;;;;9.68;4.70;;;;;;;;;;5029400;28;20053;-67
2022/03/25 09:50:33;;;;;;;9.43;5.03;;;;;;;;;;5029487;28;20081;-67
2022/03/25 09:53:05;;;;;;;7.22;3.65;;;;;;;;;;5048767;28;20493;-67
2022/03/25 09:55:42;;;;;;;10.73;4.82;;;;;;;;;;5028858;28;20513;-67
2022/03/25 09:58:22;;;;;;;8.95;4.38;;;;;;;;;;5028782;28;20568;-67
2022/03/25 10:00:53;;;;;;;8.52;4.32;;;;;;;;;;4996153;28;20579;-69
2022/03/25 10:03:31;;;;;;;8.32;5.25;;;;;;;;;;4964194;28;20068;-68
2022/03/25 10:06:04;;;;;;;8.93;4.03;;;;;;;;;;4990189;28;20058;-68
2022/03/25 10:08:45;;;;;;;9.23;4.20;;;;;;;;;;4936214;28;20059;-68
2022/03/25 10:11:19;;;;;;;;;;;;;;;;;;4954930;28;20062;-68
2022/03/25 10:14:09;;;;;;;8.07;5.00;;;;;;;;;;4954337;29;20263;-68
2022/03/25 10:16:40;;;;;;;9.57;4.20;;;;;;;;;;4954622;29;20051;-69
2022/03/25 10:19:11;;;;;;;7.38;4.25;;;;;;;;;;4957238;28;20537;-68
2022/03/25 10:21:53;;;;;;;8.32;4.90;;;;;;;;;;4973773;28;20050;-67
2022/03/25 10:24:48;;;;;;;9.68;4.65;;;;;;;;;;4953947;29;20055;-69
2022/03/25 10:27:28;;;;;;;8.68;5.82;;;;;;;;;;4954337;29;20058;-68
2022/03/25 10:30:00;;;;;;;9.73;4.78;;;;;;;;;;4954386;29;20051;-69
2022/03/25 10:32:31;;;;;;;12.95;5.45;;;;;;;;;;4934471;29;20062;-69
2022/03/25 10:35:12;;;;;;;10.45;5.32;;;;;;;;;;4935055;29;20056;-67
2022/03/25 10:37:58;;;;;;;10.70;6.05;;;;;;;;;;4934989;29;20055;-69
2022/03/25 10:40:30;;;;;;;8.95;4.80;;;;;;;;;;4934885;29;20200;-69
2022/03/25 10:43:08;;;;;;;9.38;5.05;;;;;;;;;;4953205;28;20066;-69
2022/03/25 10:45:42;;;;;;;;;;;;;;;;;;4973802;28;20047;-68
2022/03/25 10:48:21;;;;;;;8.73;5.13;;;;;;;;;;4973244;28;19929;-67
2022/03/25 10:50:58;;;;;;;8.70;4.75;;;;;;;;;;4973139;28;20063;-68
2022/03/25 10:53:32;;;;;;;7.78;4.60;;;;;;;;;;4934471;29;20060;-72
2022/03/25 10:56:12;;;;;;;8.18;4.80;;;;;;;;;;4934564;29;20051;-65
2022/03/25 10:59:00;;;;;;;8.15;4.55;;;;;;;;;;4915506;29;20059;-67
2022/03/25 11:01:31;;;;;;;8.55;4.25;;;;;;;;;;4921021;29;20056;-71
2022/03/25 11:04:04;;;;;;;7.90;4.78;;;;;;;;;;4934241;29;20052;-70
2022/03/25 11:06:37;;;;;;;10.25;5.25;;;;;;;;;;4934633;29;20422;-68
2022/03/25 11:09:09;;;;;;;7.75;4.70;;;;;;;;;;4937047;28;20047;-69
2022/03/25 11:11:42;;;;;;;8.05;4.43;;;;;;;;;;4934147;29;20059;-71
2022/03/25 11:14:13;;;;;;;14.02;7.22;;;;;;;;;;4934131;29;20052;-70
2022/03/25 11:16:46;;;;;;;13.10;7.22;;;;;;;;;;4914812;29;20725;-70
2022/03/25 11:19:17;;;;;;;9.98;6.20;;;;;;;;;;4915099;29;20060;-70
2022/03/25 11:21:49;;;;;;;10.23;4.93;;;;;;;;;;4915339;29;20117;-70
2022/03/25 11:24:40;;;;;;;8.75;4.95;;;;;;;;;;4915061;29;20423;-70
2022/03/25 11:27:22;;;;;;;7.20;3.80;;;;;;;;;;4915178;29;20056;-69
2022/03/25 11:29:56;;;;;;;6.55;3.58;;;;;;;;;;4915095;29;20063;-70
2022/03/25 11:32:26;;;;;;;8.18;4.00;;;;;;;;;;4937589;28;20499;-72
2022/03/25 11:34:56;;;;;;;6.45;3.53;;;;;;;;;;4952745;29;20050;-69
2022/03/25 11:37:32;;;;;;;5.10;2.85;;;;;;;;;;4989714;28;20078;-67
2022/03/25 11:40:46;;;;;;;;;;;;;;;;;;;;;
2022/03/25 11:43:25;;;;;;;2.38;2.08;;;;;;;;;;4952382;29;20404;-66
2022/03/25 11:46:00;;;;;;;0.52;0.30;;;;;;;;;;4930373;29;20071;-67
2022/03/25 11:48:31;;;;;;;0.50;0.20;;;;;;;;;;4933244;29;20062;-65
2022/03/25 11:51:01;;;;;;;0.73;0.73;;;;;;;;;;4933756;29;20420;-67
2022/03/25 11:53:32;;;;;;;0.40;0.30;;;;;;;;;;4935868;29;20070;-69
2022/03/25 11:56:12;;;;;;;0.25;0.22;;;;;;;;;;4920783;29;20055;-68
2022/03/25 11:59:00;;;;;;;0.40;0.13;;;;;;;;;;4952620;29;20427;-66
2022/03/25 12:01:31;;;;;;;0.32;0.20;;;;;;;;;;4952680;29;20071;-67
2022/03/25 12:04:02;;;;;;;0.10;0.10;;;;;;;;;;4920401;29;20051;-67
2022/03/25 12:07:02;;;;;;;0.55;0.30;;;;;;;;;;4914035;29;20056;-72
2022/03/25 12:09:40;;;;;;;0.10;0.10;;;;;;;;;;4914274;29;20080;-68
2022/03/25 12:12:11;;;;;;;0.15;0.10;;;;;;;;;;4908095;29;20064;-69
2022/03/25 12:15:07;;;;;;;0.28;0.20;;;;;;;;;;4863478;29;20060;-69
2022/03/25 12:17:38;;;;;;;2.33;0.25;;;;;;;;;;4860116;29;20057;-68
2022/03/25 12:20:09;;;;;;;1.30;0.68;;;;;;;;;;4899960;29;20505;-69
2022/03/25 12:22:41;;;;;;;0.10;0.10;;;;;;;;;;4916514;29;20056;-69
2022/03/25 12:25:17;;;;;;;0.10;0.10;;;;;;;;;;4917584;29;20068;-69
2022/03/25 12:27:52;;;;;;;1.27;0.45;;;;;;;;;;4933035;29;20055;-68
2022/03/25 12:30:23;;;;;;;1.10;0.30;;;;;;;;;;4932413;29;20060;-67
2022/03/25 12:33:07;;;;;;;0.30;0.20;;;;;;;;;;4932637;29;20058;-69
2022/03/25 12:35:38;;;;;;;0.45;0.22;;;;;;;;;;4901203;29;20055;-72
2022/03/25 12:38:25;;;;;;;0.65;0.22;;;;;;;;;;4932723;29;20060;-67
2022/03/25 12:40:56;;;;;;;0.98;0.40;;;;;;;;;;4913821;29;20059;-67
2022/03/25 12:43:55;;;;;;;0.30;0.22;;;;;;;;;;4913578;29;20056;-68
2022/03/25 12:46:28;;;;;;;0.10;0.10;;;;;;;;;;4913452;29;20448;-67
2022/03/25 12:49:04;;;;;;;0.20;0.10;;;;;;;;;;4882314;29;20056;-67
2022/03/25 12:51:35;;;;;;;0.40;0.35;;;;;;;;;;4953615;28;20062;-69
2022/03/25 12:54:16;;;;;;;2.20;0.30;;;;;;;;;;4942327;28;20057;-71
2022/03/25 12:57:16;;;;;;;1.17;0.30;;;;;;;;;;4951593;28;20122;-70
2022/03/25 12:59:57;;;;;;;0.57;0.20;;;;;;;;;;4860206;29;20049;-72
2022/03/25 13:02:33;;;;;;;0.50;0.30;;;;;;;;;;4859054;29;20063;-70
2022/03/25 13:05:17;;;;;;;0.30;0.20;;;;;;;;;;4859997;29;20049;-70
2022/03/25 13:07:58;;;;;;;0.20;0.10;;;;;;;;;;4860392;29;20053;-73
2022/03/25 13:10:29;;;;;;;1.65;0.50;;;;;;;;;;4863518;29;20053;-71
2022/03/25 13:13:03;;;;;;;0.93;0.30;;;;;;;;;;4890331;29;20064;-69
2022/03/25 13:15:36;;;;;;;3.05;0.38;;;;;;;;;;4888704;29;20053;-68
2022/03/25 13:18:10;;;;;;;0.60;0.28;;;;;;;;;;4846900;29;20067;-71
2022/03/25 13:20:44;;;;;;;2.75;0.40;;;;;;;;;;4866971;29;20058;-68
2022/03/25 13:23:20;;;;;;;2.22;0.47;;;;;;;;;;4829241;29;20053;-68
2022/03/25 13:25:56;;;;;;;4.03;0.63;;;;;;;;;;4874896;29;20056;-67
2022/03/25 13:28:32;;;;;;;2.28;0.60;;;;;;;;;;4883828;29;20068;-67
2022/03/25 13:31:07;;;;;;;1.27;0.65;;;;;;;;;;4853518;29;20057;-66
2022/03/25 13:33:53;;;;;;;1.88;0.50;;;;;;;;;;4880494;29;20057;-67
2022/03/25 13:36:35;;;;;;;1.50;0.50;;;;;;;;;;4875882;29;20045;-68
2022/03/25 13:39:14;;;;;;;0.45;0.20;;;;;;;;;;4894284;29;20065;-67
2022/03/25 13:41:45;;;;;;;1.50;0.40;;;;;;;;;;4930309;28;20056;-67
2022/03/25 13:44:17;;;;;;;0.80;0.68;;;;;;;;;;4974362;28;20063;-68
2022/03/25 13:46:47;;;;;;;3.10;0.40;;;;;;;;;;4920419;29;20067;-70
2022/03/25 13:49:22;;;;;;;1.50;0.60;;;;;;;;;;4916462;29;20092;-66
2022/03/25 13:52:05;;;;;;;1.60;0.38;;;;;;;;;;4916915;29;20412;-67
2022/03/25 13:54:36;;;;;;;2.83;0.80;;;;;;;;;;4916415;29;20455;-68
2022/03/25 13:57:17;;;;;;;1.20;0.43;;;;;;;;;;4923297;29;20079;-67
2022/03/25 13:59:48;;;;;;;0.70;0.32;;;;;;;;;;4943612;29;20051;-70
2022/03/25 14:02:28;;;;;;;1.05;0.17;;;;;;;;;;4954439;29;20051;-68
2022/03/25 14:04:59;;;;;;;0.32;0.20;;;;;;;;;;4954012;29;20081;-69
2022/03/25 14:07:38;;;;;;;1.73;0.22;;;;;;;;;;4934691;29;20062;-68
2022/03/25 14:10:13;;;;;;;3.63;0.77;;;;;;;;;;4955556;28;20062;-69
2022/03/25 14:12:44;;;;;;;0.95;0.73;;;;;;;;;;4882319;29;20059;-68
2022/03/25 14:15:18;;;;;;;1.10;0.88;;;;;;;;;;4973436;28;20506;-68
2022/03/25 14:17:51;;;;;;;2.35;0.28;;;;;;;;;;4973636;28;20062;-68
2022/03/25 14:20:27;;;;;;;0.45;0.30;;;;;;;;;;4973821;28;20066;-69
2022/03/25 14:23:01;;;;;;;3.13;0.47;;;;;;;;;;4974126;28;20055;-68
2022/03/25 14:25:33;;;;;;;0.20;0.13;;;;;;;;;;4898937;29;20056;-68
2022/03/25 14:28:10;;;;;;;1.85;0.70;;;;;;;;;;4948295;28;20532;-69
2022/03/25 14:30:41;;;;;;;2.42;0.40;;;;;;;;;;4935256;29;20067;-69
2022/03/25 14:33:12;;;;;;;1.15;0.35;;;;;;;;;;4935346;29;20067;-70
2022/03/25 14:35:43;;;;;;;0.40;0.22;;;;;;;;;;4935242;29;20063;-69
2022/03/25 14:38:13;;;;;;;1.58;0.40;;;;;;;;;;4954019;28;20059;-69
2022/03/25 14:40:43;;;;;;;1.42;0.35;;;;;;;;;;4969587;28;20062;-70
2022/03/25 14:43:14;;;;;;;3.60;0.35;;;;;;;;;;4975859;28;20058;-70
2022/03/25 14:45:45;;;;;;;1.48;0.35;;;;;;;;;;4992713;28;20529;-69
2022/03/25 14:48:15;;;;;;;2.05;0.40;;;;;;;;;;4992603;28;20520;-70
2022/03/25 14:50:46;;;;;;;1.60;0.30;;;;;;;;;;4992888;28;20556;-70
2022/03/25 14:53:17;;;;;;;5.03;0.40;;;;;;;;;;5008070;28;20065;-70
2022/03/25 14:55:48;;;;;;;3.65;0.43;;;;;;;;;;5031616;28;20052;-70
2022/03/25 14:58:22;;;;;;;1.70;0.30;;;;;;;;;;5031765;28;20053;-70
2022/03/25 15:00:52;;;;;;;1.70;0.50;;;;;;;;;;5032060;28;20057;-70
2022/03/25 15:03:25;;;;;;;0.88;0.30;;;;;;;;;;5031455;28;20061;-70
2022/03/25 15:05:55;;;;;;;1.15;0.32;;;;;;;;;;5031890;28;20069;-70
2022/03/25 15:08:26;;;;;;;1.85;0.32;;;;;;;;;;4998892;28;20081;-70
2022/03/25 15:10:57;;;;;;;0.82;0.30;;;;;;;;;;5031756;28;20544;-70
2022/03/25 15:13:28;;;;;;;3.45;0.57;;;;;;;;;;5031594;28;20057;-70
2022/03/25 15:15:59;;;;;;;1.38;0.43;;;;;;;;;;4998273;28;20535;-69
2022/03/25 15:18:30;;;;;;;4.32;0.30;;;;;;;;;;5031438;28;20057;-70
2022/03/25 15:21:00;;;;;;;2.50;0.85;;;;;;;;;;5031164;28;20577;-69
2022/03/25 15:23:32;;;;;;;2.78;0.40;;;;;;;;;;5031359;28;20533;-68
2022/03/25 15:26:03;;;;;;;;;;;;;;;;;;5031777;28;20513;-69